sensor_id;sensor_type;location;lat;lon;timestamp;temperature;humidity
3770;DHT22;1900;48.890;9.190;2023-02-05T00:02:14;9.40;60.00
3770;DHT22;1900;48.890;9.190;2023-02-05T00:04:40;9.30;60.00
3770;DHT22;1900;48.890;9.190;2023-02-05T00:07:06;9.30;60.00
3770;DHT22;1900;48.890;9.190;2023-02-05T00:09:32;9.30;60.00
3770;DHT22;1900;48.890;9.190;2023-02-05T00:11:58;9.30;60.00
3770;DHT22;1900;48.890;9.190;2023-02-05T00:14:24;9.30;60.30
3770;DHT22;1900;48.890;9.190;2023-02-05T00:16:51;9.30;59.90
3770;DHT22;1900;48.890;9.190;2023-02-05T00:19:17;9.30;59.90
3770;DHT22;1900;48.890;9.190;2023-02-05T00:21:43;9.30;59.90
3770;DHT22;1900;48.890;9.190;2023-02-05T00:24:09;9.30;59.90
3770;DHT22;1900;48.890;9.190;2023-02-05T00:26:35;9.30;60.00
3770;DHT22;1900;48.890;9.190;2023-02-05T00:29:02;9.30;60.00
3770;DHT22;1900;48.890;9.190;2023-02-05T00:31:28;9.30;60.00
3770;DHT22;1900;48.890;9.190;2023-02-05T00:33:53;9.20;59.80
3770;DHT22;1900;48.890;9.190;2023-02-05T00:36:20;9.20;59.80
3770;DHT22;1900;48.890;9.190;2023-02-05T00:38:46;9.20;59.80
3770;DHT22;1900;48.890;9.190;2023-02-05T00:41:13;9.20;59.90
3770;DHT22;1900;48.890;9.190;2023-02-05T00:43:39;9.20;59.90
3770;DHT22;1900;48.890;9.190;2023-02-05T00:46:05;9.20;59.90
3770;DHT22;1900;48.890;9.190;2023-02-05T00:48:31;9.20;60.00
3770;DHT22;1900;48.890;9.190;2023-02-05T00:50:57;9.20;60.00
3770;DHT22;1900;48.890;9.190;2023-02-05T00:53:23;9.20;60.00
3770;DHT22;1900;48.890;9.190;2023-02-05T00:55:49;9.20;60.00
3770;DHT22;1900;48.890;9.190;2023-02-05T00:58:16;9.20;60.00
3770;DHT22;1900;48.890;9.190;2023-02-05T01:00:42;9.20;59.90
3770;DHT22;1900;48.890;9.190;2023-02-05T01:03:09;9.20;59.80
3770;DHT22;1900;48.890;9.190;2023-02-05T01:05:36;9.20;59.80
3770;DHT22;1900;48.890;9.190;2023-02-05T01:08:03;9.20;59.80
3770;DHT22;1900;48.890;9.190;2023-02-05T01:10:29;9.20;59.80
3770;DHT22;1900;48.890;9.190;2023-02-05T01:12:54;9.10;59.80
3770;DHT22;1900;48.890;9.190;2023-02-05T01:15:20;9.10;59.80
3770;DHT22;1900;48.890;9.190;2023-02-05T01:17:46;9.10;59.80
3770;DHT22;1900;48.890;9.190;2023-02-05T01:20:13;9.10;59.70
3770;DHT22;1900;48.890;9.190;2023-02-05T01:22:39;9.10;59.70
3770;DHT22;1900;48.890;9.190;2023-02-05T01:25:05;9.10;59.70
3770;DHT22;1900;48.890;9.190;2023-02-05T01:27:32;9.00;59.50
3770;DHT22;1900;48.890;9.190;2023-02-05T01:29:58;9.00;59.50
3770;DHT22;1900;48.890;9.190;2023-02-05T01:32:23;9.00;59.60
3770;DHT22;1900;48.890;9.190;2023-02-05T01:34:49;9.00;59.60
3770;DHT22;1900;48.890;9.190;2023-02-05T01:37:15;9.00;59.60
3770;DHT22;1900;48.890;9.190;2023-02-05T01:39:41;9.00;59.60
3770;DHT22;1900;48.890;9.190;2023-02-05T01:42:26;9.00;59.60
3770;DHT22;1900;48.890;9.190;2023-02-05T01:47:47;8.90;59.60
3770;DHT22;1900;48.890;9.190;2023-02-05T01:50:14;8.90;59.70
3770;DHT22;1900;48.890;9.190;2023-02-05T01:52:40;8.90;59.70
3770;DHT22;1900;48.890;9.190;2023-02-05T01:55:07;8.90;59.80
3770;DHT22;1900;48.890;9.190;2023-02-05T01:57:33;8.90;59.80
3770;DHT22;1900;48.890;9.190;2023-02-05T02:00:02;9.00;59.90
3770;DHT22;1900;48.890;9.190;2023-02-05T02:02:40;9.00;59.90
3770;DHT22;1900;48.890;9.190;2023-02-05T02:05:10;9.00;59.90
3770;DHT22;1900;48.890;9.190;2023-02-05T02:07:36;8.90;59.70
3770;DHT22;1900;48.890;9.190;2023-02-05T02:10:02;9.00;59.80
3770;DHT22;1900;48.890;9.190;2023-02-05T02:12:34;9.00;59.90
3770;DHT22;1900;48.890;9.190;2023-02-05T02:15:07;9.00;59.80
3770;DHT22;1900;48.890;9.190;2023-02-05T02:17:35;9.00;59.80
3770;DHT22;1900;48.890;9.190;2023-02-05T02:20:09;9.00;59.80
3770;DHT22;1900;48.890;9.190;2023-02-05T02:31:08;8.90;59.60
3770;DHT22;1900;48.890;9.190;2023-02-05T02:33:42;8.90;59.70
3770;DHT22;1900;48.890;9.190;2023-02-05T02:36:14;8.90;59.70
3770;DHT22;1900;48.890;9.190;2023-02-05T02:39:12;8.90;59.60
3770;DHT22;1900;48.890;9.190;2023-02-05T02:41:52;8.90;59.60
3770;DHT22;1900;48.890;9.190;2023-02-05T02:47:00;8.80;59.50
3770;DHT22;1900;48.890;9.190;2023-02-05T02:49:44;8.80;59.50
3770;DHT22;1900;48.890;9.190;2023-02-05T02:52:12;8.80;59.40
3770;DHT22;1900;48.890;9.190;2023-02-05T02:54:43;8.70;59.30
3770;DHT22;1900;48.890;9.190;2023-02-05T02:57:11;8.70;59.30
3770;DHT22;1900;48.890;9.190;2023-02-05T02:59:39;8.70;59.30
3770;DHT22;1900;48.890;9.190;2023-02-05T03:02:09;8.70;59.30
3770;DHT22;1900;48.890;9.190;2023-02-05T03:04:42;8.70;59.30
3770;DHT22;1900;48.890;9.190;2023-02-05T03:07:13;8.60;59.20
3770;DHT22;1900;48.890;9.190;2023-02-05T03:10:00;8.60;59.70
3770;DHT22;1900;48.890;9.190;2023-02-05T03:12:28;8.60;59.20
3770;DHT22;1900;48.890;9.190;2023-02-05T03:14:54;8.60;59.20
3770;DHT22;1900;48.890;9.190;2023-02-05T03:17:22;8.50;59.20
3770;DHT22;1900;48.890;9.190;2023-02-05T03:19:55;8.50;59.30
3770;DHT22;1900;48.890;9.190;2023-02-05T03:22:22;8.50;59.40
3770;DHT22;1900;48.890;9.190;2023-02-05T03:24:49;8.50;59.40
3770;DHT22;1900;48.890;9.190;2023-02-05T03:27:15;8.60;59.60
3770;DHT22;1900;48.890;9.190;2023-02-05T03:29:42;8.60;59.70
3770;DHT22;1900;48.890;9.190;2023-02-05T03:43:20;8.60;59.50
3770;DHT22;1900;48.890;9.190;2023-02-05T03:46:17;8.70;59.60
3770;DHT22;1900;48.890;9.190;2023-02-05T03:51:43;8.60;59.40
3770;DHT22;1900;48.890;9.190;2023-02-05T03:56:56;8.60;59.30
3770;DHT22;1900;48.890;9.190;2023-02-05T03:59:25;8.50;59.20
3770;DHT22;1900;48.890;9.190;2023-02-05T04:01:52;8.50;59.20
3770;DHT22;1900;48.890;9.190;2023-02-05T04:04:19;8.50;59.20
3770;DHT22;1900;48.890;9.190;2023-02-05T04:06:47;8.50;59.10
3770;DHT22;1900;48.890;9.190;2023-02-05T04:09:14;8.40;59.00
3770;DHT22;1900;48.890;9.190;2023-02-05T04:11:39;8.40;59.00
3770;DHT22;1900;48.890;9.190;2023-02-05T04:14:05;8.40;59.00
3770;DHT22;1900;48.890;9.190;2023-02-05T04:16:32;8.30;58.80
3770;DHT22;1900;48.890;9.190;2023-02-05T04:18:59;8.30;58.80
3770;DHT22;1900;48.890;9.190;2023-02-05T04:21:26;8.30;58.70
3770;DHT22;1900;48.890;9.190;2023-02-05T04:23:52;8.20;58.70
3770;DHT22;1900;48.890;9.190;2023-02-05T04:26:18;8.20;58.70
3770;DHT22;1900;48.890;9.190;2023-02-05T04:28:54;8.20;58.80
3770;DHT22;1900;48.890;9.190;2023-02-05T04:31:19;8.10;58.70
3770;DHT22;1900;48.890;9.190;2023-02-05T04:33:46;8.10;58.80
3770;DHT22;1900;48.890;9.190;2023-02-05T04:36:13;8.10;58.90
3770;DHT22;1900;48.890;9.190;2023-02-05T04:38:39;8.10;58.90
3770;DHT22;1900;48.890;9.190;2023-02-05T04:41:05;8.10;59.50
3770;DHT22;1900;48.890;9.190;2023-02-05T04:43:30;8.10;59.00
3770;DHT22;1900;48.890;9.190;2023-02-05T04:45:56;8.10;59.10
3770;DHT22;1900;48.890;9.190;2023-02-05T04:48:22;8.10;59.10
3770;DHT22;1900;48.890;9.190;2023-02-05T04:50:47;8.10;59.10
3770;DHT22;1900;48.890;9.190;2023-02-05T04:53:13;8.10;59.10
3770;DHT22;1900;48.890;9.190;2023-02-05T04:55:39;8.10;59.10
3770;DHT22;1900;48.890;9.190;2023-02-05T04:58:04;8.20;59.20
3770;DHT22;1900;48.890;9.190;2023-02-05T05:00:30;8.10;59.10
3770;DHT22;1900;48.890;9.190;2023-02-05T05:02:57;8.20;59.20
3770;DHT22;1900;48.890;9.190;2023-02-05T05:05:23;8.10;59.20
3770;DHT22;1900;48.890;9.190;2023-02-05T05:07:48;8.20;59.30
3770;DHT22;1900;48.890;9.190;2023-02-05T05:10:14;8.20;59.30
3770;DHT22;1900;48.890;9.190;2023-02-05T05:12:40;8.20;59.30
3770;DHT22;1900;48.890;9.190;2023-02-05T05:15:06;8.20;59.30
3770;DHT22;1900;48.890;9.190;2023-02-05T05:17:33;8.20;59.20
3770;DHT22;1900;48.890;9.190;2023-02-05T05:19:59;8.20;59.20
3770;DHT22;1900;48.890;9.190;2023-02-05T05:22:25;8.20;59.20
3770;DHT22;1900;48.890;9.190;2023-02-05T05:24:50;8.20;59.20
3770;DHT22;1900;48.890;9.190;2023-02-05T05:27:16;8.20;59.20
3770;DHT22;1900;48.890;9.190;2023-02-05T05:29:44;8.20;59.30
3770;DHT22;1900;48.890;9.190;2023-02-05T05:32:11;8.20;59.30
3770;DHT22;1900;48.890;9.190;2023-02-05T05:34:37;8.30;59.30
3770;DHT22;1900;48.890;9.190;2023-02-05T05:37:03;8.20;59.30
3770;DHT22;1900;48.890;9.190;2023-02-05T05:39:28;8.30;59.30
3770;DHT22;1900;48.890;9.190;2023-02-05T05:42:13;8.30;59.30
3770;DHT22;1900;48.890;9.190;2023-02-05T05:44:57;8.20;59.30
3770;DHT22;1900;48.890;9.190;2023-02-05T05:47:23;8.30;59.30
3770;DHT22;1900;48.890;9.190;2023-02-05T05:49:49;8.30;59.30
3770;DHT22;1900;48.890;9.190;2023-02-05T05:52:14;8.30;59.30
3770;DHT22;1900;48.890;9.190;2023-02-05T05:54:40;8.30;59.20
3770;DHT22;1900;48.890;9.190;2023-02-05T05:57:06;8.20;59.10
3770;DHT22;1900;48.890;9.190;2023-02-05T05:59:32;8.20;59.10
3770;DHT22;1900;48.890;9.190;2023-02-05T06:02:00;8.20;59.10
3770;DHT22;1900;48.890;9.190;2023-02-05T06:04:26;8.20;59.10
3770;DHT22;1900;48.890;9.190;2023-02-05T06:06:52;8.20;59.10
3770;DHT22;1900;48.890;9.190;2023-02-05T06:09:18;8.20;59.10
3770;DHT22;1900;48.890;9.190;2023-02-05T06:11:46;8.20;59.10
3770;DHT22;1900;48.890;9.190;2023-02-05T06:14:12;8.20;59.10
3770;DHT22;1900;48.890;9.190;2023-02-05T06:16:39;8.20;59.70
3770;DHT22;1900;48.890;9.190;2023-02-05T06:19:04;8.20;59.10
3770;DHT22;1900;48.890;9.190;2023-02-05T06:21:30;8.20;59.10
3770;DHT22;1900;48.890;9.190;2023-02-05T06:23:56;8.10;59.00
3770;DHT22;1900;48.890;9.190;2023-02-05T06:26:22;8.10;58.80
3770;DHT22;1900;48.890;9.190;2023-02-05T06:28:47;8.10;58.70
3770;DHT22;1900;48.890;9.190;2023-02-05T06:31:13;8.00;58.60
3770;DHT22;1900;48.890;9.190;2023-02-05T06:33:38;8.00;58.60
3770;DHT22;1900;48.890;9.190;2023-02-05T06:36:05;8.00;58.70
3770;DHT22;1900;48.890;9.190;2023-02-05T06:38:30;7.90;58.60
3770;DHT22;1900;48.890;9.190;2023-02-05T06:40:56;7.90;58.60
3770;DHT22;1900;48.890;9.190;2023-02-05T06:43:22;7.90;58.60
3770;DHT22;1900;48.890;9.190;2023-02-05T06:45:47;7.90;58.60
3770;DHT22;1900;48.890;9.190;2023-02-05T06:48:13;7.80;58.50
3770;DHT22;1900;48.890;9.190;2023-02-05T06:50:39;7.80;58.60
3770;DHT22;1900;48.890;9.190;2023-02-05T06:53:04;7.80;58.60
3770;DHT22;1900;48.890;9.190;2023-02-05T06:55:31;7.80;58.60
3770;DHT22;1900;48.890;9.190;2023-02-05T06:57:56;7.70;58.50
3770;DHT22;1900;48.890;9.190;2023-02-05T07:00:22;7.70;58.60
3770;DHT22;1900;48.890;9.190;2023-02-05T07:02:48;7.70;58.60
3770;DHT22;1900;48.890;9.190;2023-02-05T07:05:14;7.70;58.70
3770;DHT22;1900;48.890;9.190;2023-02-05T07:07:40;7.70;58.70
3770;DHT22;1900;48.890;9.190;2023-02-05T07:10:05;7.70;58.90
3770;DHT22;1900;48.890;9.190;2023-02-05T07:12:31;7.70;59.00
3770;DHT22;1900;48.890;9.190;2023-02-05T07:14:57;7.70;59.00
3770;DHT22;1900;48.890;9.190;2023-02-05T07:17:22;7.70;58.90
3770;DHT22;1900;48.890;9.190;2023-02-05T07:19:48;7.70;58.90
3770;DHT22;1900;48.890;9.190;2023-02-05T07:22:14;7.70;59.00
3770;DHT22;1900;48.890;9.190;2023-02-05T07:24:40;7.70;59.00
3770;DHT22;1900;48.890;9.190;2023-02-05T07:27:06;7.80;59.10
3770;DHT22;1900;48.890;9.190;2023-02-05T07:29:31;7.80;59.10
3770;DHT22;1900;48.890;9.190;2023-02-05T07:31:57;7.80;59.30
3770;DHT22;1900;48.890;9.190;2023-02-05T07:34:23;7.80;59.30
3770;DHT22;1900;48.890;9.190;2023-02-05T07:36:49;7.80;59.30
3770;DHT22;1900;48.890;9.190;2023-02-05T07:39:16;7.90;59.40
3770;DHT22;1900;48.890;9.190;2023-02-05T07:41:41;7.90;59.30
3770;DHT22;1900;48.890;9.190;2023-02-05T07:44:13;7.90;59.20
3770;DHT22;1900;48.890;9.190;2023-02-05T07:46:39;7.90;59.20
3770;DHT22;1900;48.890;9.190;2023-02-05T07:49:05;7.90;59.20
3770;DHT22;1900;48.890;9.190;2023-02-05T07:51:30;7.90;59.30
3770;DHT22;1900;48.890;9.190;2023-02-05T07:53:57;7.90;59.30
3770;DHT22;1900;48.890;9.190;2023-02-05T07:56:22;7.90;59.30
3770;DHT22;1900;48.890;9.190;2023-02-05T07:58:50;7.90;59.30
3770;DHT22;1900;48.890;9.190;2023-02-05T08:01:16;7.90;59.20
3770;DHT22;1900;48.890;9.190;2023-02-05T08:03:42;7.90;59.20
3770;DHT22;1900;48.890;9.190;2023-02-05T08:06:08;7.90;59.20
3770;DHT22;1900;48.890;9.190;2023-02-05T08:08:35;7.90;59.20
3770;DHT22;1900;48.890;9.190;2023-02-05T08:11:03;8.00;59.30
3770;DHT22;1900;48.890;9.190;2023-02-05T08:13:29;7.90;59.30
3770;DHT22;1900;48.890;9.190;2023-02-05T08:15:55;7.90;59.30
3770;DHT22;1900;48.890;9.190;2023-02-05T08:18:21;8.00;59.30
3770;DHT22;1900;48.890;9.190;2023-02-05T08:20:51;8.00;59.20
3770;DHT22;1900;48.890;9.190;2023-02-05T08:23:17;8.00;59.30
3770;DHT22;1900;48.890;9.190;2023-02-05T08:25:43;8.00;59.40
3770;DHT22;1900;48.890;9.190;2023-02-05T08:28:08;8.00;59.40
3770;DHT22;1900;48.890;9.190;2023-02-05T08:30:34;8.00;59.40
3770;DHT22;1900;48.890;9.190;2023-02-05T08:33:00;8.00;59.30
3770;DHT22;1900;48.890;9.190;2023-02-05T08:35:25;8.00;59.40
3770;DHT22;1900;48.890;9.190;2023-02-05T08:37:51;8.00;59.40
3770;DHT22;1900;48.890;9.190;2023-02-05T08:40:17;8.00;59.50
3770;DHT22;1900;48.890;9.190;2023-02-05T08:42:44;8.10;59.60
3770;DHT22;1900;48.890;9.190;2023-02-05T08:45:11;8.10;59.70
3770;DHT22;1900;48.890;9.190;2023-02-05T08:47:36;8.10;59.70
3770;DHT22;1900;48.890;9.190;2023-02-05T08:50:05;8.10;59.70
3770;DHT22;1900;48.890;9.190;2023-02-05T08:52:31;8.10;59.70
3770;DHT22;1900;48.890;9.190;2023-02-05T08:54:57;8.20;59.70
3770;DHT22;1900;48.890;9.190;2023-02-05T08:57:27;8.20;59.70
3770;DHT22;1900;48.890;9.190;2023-02-05T08:59:53;8.20;59.70
3770;DHT22;1900;48.890;9.190;2023-02-05T09:02:19;8.20;59.70
3770;DHT22;1900;48.890;9.190;2023-02-05T09:04:45;8.30;59.80
3770;DHT22;1900;48.890;9.190;2023-02-05T09:07:10;8.30;59.80
3770;DHT22;1900;48.890;9.190;2023-02-05T09:09:36;8.30;60.00
3770;DHT22;1900;48.890;9.190;2023-02-05T09:12:03;8.30;59.90
3770;DHT22;1900;48.890;9.190;2023-02-05T09:14:28;8.30;59.90
3770;DHT22;1900;48.890;9.190;2023-02-05T09:17:01;8.30;59.90
3770;DHT22;1900;48.890;9.190;2023-02-05T09:19:28;8.30;59.90
3770;DHT22;1900;48.890;9.190;2023-02-05T09:21:56;8.40;60.00
3770;DHT22;1900;48.890;9.190;2023-02-05T09:24:21;8.40;60.00
3770;DHT22;1900;48.890;9.190;2023-02-05T09:26:47;8.40;60.10
3770;DHT22;1900;48.890;9.190;2023-02-05T09:29:13;8.40;60.00
3770;DHT22;1900;48.890;9.190;2023-02-05T09:31:40;8.40;60.00
3770;DHT22;1900;48.890;9.190;2023-02-05T09:34:05;8.40;59.90
3770;DHT22;1900;48.890;9.190;2023-02-05T09:36:31;8.40;59.90
3770;DHT22;1900;48.890;9.190;2023-02-05T09:38:57;8.40;59.90
3770;DHT22;1900;48.890;9.190;2023-02-05T09:41:29;8.40;59.90
3770;DHT22;1900;48.890;9.190;2023-02-05T09:49:16;8.40;60.10
3770;DHT22;1900;48.890;9.190;2023-02-05T09:51:48;8.40;60.10
3770;DHT22;1900;48.890;9.190;2023-02-05T09:54:38;8.40;60.20
3770;DHT22;1900;48.890;9.190;2023-02-05T09:57:07;8.50;60.30
3770;DHT22;1900;48.890;9.190;2023-02-05T09:59:35;8.50;60.30
3770;DHT22;1900;48.890;9.190;2023-02-05T10:02:13;8.50;60.30
3770;DHT22;1900;48.890;9.190;2023-02-05T10:04:42;8.50;60.30
3770;DHT22;1900;48.890;9.190;2023-02-05T10:10:27;8.60;60.40
3770;DHT22;1900;48.890;9.190;2023-02-05T10:20:57;8.50;60.10
3770;DHT22;1900;48.890;9.190;2023-02-05T10:24:01;8.50;60.20
3770;DHT22;1900;48.890;9.190;2023-02-05T10:26:45;8.60;60.30
3770;DHT22;1900;48.890;9.190;2023-02-05T10:34:59;8.50;60.10
3770;DHT22;1900;48.890;9.190;2023-02-05T10:37:44;8.50;60.20
3770;DHT22;1900;48.890;9.190;2023-02-05T10:40:14;8.50;60.30
3770;DHT22;1900;48.890;9.190;2023-02-05T10:45:28;8.50;60.40
3770;DHT22;1900;48.890;9.190;2023-02-05T10:48:30;8.60;60.50
3770;DHT22;1900;48.890;9.190;2023-02-05T10:51:14;8.60;60.70
3770;DHT22;1900;48.890;9.190;2023-02-05T10:53:40;8.60;60.70
3770;DHT22;1900;48.890;9.190;2023-02-05T10:56:06;8.60;60.70
3770;DHT22;1900;48.890;9.190;2023-02-05T11:01:11;8.70;61.00
3770;DHT22;1900;48.890;9.190;2023-02-05T11:03:38;8.70;61.00
3770;DHT22;1900;48.890;9.190;2023-02-05T11:06:09;8.70;61.00
3770;DHT22;1900;48.890;9.190;2023-02-05T11:08:40;8.70;60.80
3770;DHT22;1900;48.890;9.190;2023-02-05T11:11:14;8.70;60.80
3770;DHT22;1900;48.890;9.190;2023-02-05T11:13:49;8.80;60.90
3770;DHT22;1900;48.890;9.190;2023-02-05T11:16:16;8.80;60.90
3770;DHT22;1900;48.890;9.190;2023-02-05T11:18:42;8.80;61.00
3770;DHT22;1900;48.890;9.190;2023-02-05T11:21:09;8.80;61.00
3770;DHT22;1900;48.890;9.190;2023-02-05T11:23:36;8.80;60.90
3770;DHT22;1900;48.890;9.190;2023-02-05T11:26:18;8.90;60.90
3770;DHT22;1900;48.890;9.190;2023-02-05T11:28:45;8.90;61.00
3770;DHT22;1900;48.890;9.190;2023-02-05T11:31:26;8.90;61.00
3770;DHT22;1900;48.890;9.190;2023-02-05T11:34:10;8.90;61.00
3770;DHT22;1900;48.890;9.190;2023-02-05T11:36:38;8.90;61.00
3770;DHT22;1900;48.890;9.190;2023-02-05T11:39:05;8.90;61.00
3770;DHT22;1900;48.890;9.190;2023-02-05T11:41:37;8.90;61.10
3770;DHT22;1900;48.890;9.190;2023-02-05T11:44:24;8.90;61.20
3770;DHT22;1900;48.890;9.190;2023-02-05T11:46:52;8.90;61.30
3770;DHT22;1900;48.890;9.190;2023-02-05T11:49:31;9.00;61.50
3770;DHT22;1900;48.890;9.190;2023-02-05T11:51:58;9.00;61.60
3770;DHT22;1900;48.890;9.190;2023-02-05T11:54:31;9.00;61.60
3770;DHT22;1900;48.890;9.190;2023-02-05T11:59:38;9.10;61.80
3770;DHT22;1900;48.890;9.190;2023-02-05T12:02:37;9.10;61.70
3770;DHT22;1900;48.890;9.190;2023-02-05T12:07:40;9.20;61.70
3770;DHT22;1900;48.890;9.190;2023-02-05T12:10:18;9.20;61.70
3770;DHT22;1900;48.890;9.190;2023-02-05T12:13:13;9.30;61.80
3770;DHT22;1900;48.890;9.190;2023-02-05T12:16:14;9.30;61.90
3770;DHT22;1900;48.890;9.190;2023-02-05T12:24:09;9.30;61.90
3770;DHT22;1900;48.890;9.190;2023-02-05T12:26:44;9.30;61.70
3770;DHT22;1900;48.890;9.190;2023-02-05T12:29:40;9.40;62.00
3770;DHT22;1900;48.890;9.190;2023-02-05T12:32:32;9.40;62.10
3770;DHT22;1900;48.890;9.190;2023-02-05T12:40:19;9.50;62.40
3770;DHT22;1900;48.890;9.190;2023-02-05T12:42:50;9.50;62.40
3770;DHT22;1900;48.890;9.190;2023-02-05T12:45:38;9.50;62.20
3770;DHT22;1900;48.890;9.190;2023-02-05T12:59:42;9.60;62.50
3770;DHT22;1900;48.890;9.190;2023-02-05T13:02:22;9.60;62.50
3770;DHT22;1900;48.890;9.190;2023-02-05T13:07:56;9.70;62.50
3770;DHT22;1900;48.890;9.190;2023-02-05T13:10:28;9.70;62.50
3770;DHT22;1900;48.890;9.190;2023-02-05T13:13:02;9.70;62.50
3770;DHT22;1900;48.890;9.190;2023-02-05T13:15:42;9.70;62.50
3770;DHT22;1900;48.890;9.190;2023-02-05T13:20:49;9.70;62.50
3770;DHT22;1900;48.890;9.190;2023-02-05T13:23:37;9.70;62.50
3770;DHT22;1900;48.890;9.190;2023-02-05T13:26:31;9.70;62.60
3770;DHT22;1900;48.890;9.190;2023-02-05T13:29:18;9.70;62.60
3770;DHT22;1900;48.890;9.190;2023-02-05T13:31:52;9.70;62.50
3770;DHT22;1900;48.890;9.190;2023-02-05T13:34:19;9.70;62.60
3770;DHT22;1900;48.890;9.190;2023-02-05T13:37:09;9.70;62.60
3770;DHT22;1900;48.890;9.190;2023-02-05T13:45:22;9.80;62.80
3770;DHT22;1900;48.890;9.190;2023-02-05T13:59:04;9.80;62.40
3770;DHT22;1900;48.890;9.190;2023-02-05T14:01:42;9.70;62.30
3770;DHT22;1900;48.890;9.190;2023-02-05T14:04:36;9.70;62.10
3770;DHT22;1900;48.890;9.190;2023-02-05T14:07:06;9.60;61.90
3770;DHT22;1900;48.890;9.190;2023-02-05T14:09:37;9.60;62.10
3770;DHT22;1900;48.890;9.190;2023-02-05T14:12:08;9.60;62.10
3770;DHT22;1900;48.890;9.190;2023-02-05T14:14:36;9.60;62.20
3770;DHT22;1900;48.890;9.190;2023-02-05T14:19:57;9.50;62.20
3770;DHT22;1900;48.890;9.190;2023-02-05T14:31:01;9.40;62.00
3770;DHT22;1900;48.890;9.190;2023-02-05T14:43:59;9.40;62.00
3770;DHT22;1900;48.890;9.190;2023-02-05T14:46:35;9.30;62.00
3770;DHT22;1900;48.890;9.190;2023-02-05T14:49:05;9.30;61.90
3770;DHT22;1900;48.890;9.190;2023-02-05T14:51:37;9.30;62.00
3770;DHT22;1900;48.890;9.190;2023-02-05T14:57:09;9.20;61.80
3770;DHT22;1900;48.890;9.190;2023-02-05T15:00:03;9.20;61.80
3770;DHT22;1900;48.890;9.190;2023-02-05T15:10:36;9.20;62.20
3770;DHT22;1900;48.890;9.190;2023-02-05T15:13:12;9.20;62.20
3770;DHT22;1900;48.890;9.190;2023-02-05T15:15:39;9.20;62.20
3770;DHT22;1900;48.890;9.190;2023-02-05T15:18:28;9.20;62.30
3770;DHT22;1900;48.890;9.190;2023-02-05T15:20:55;9.10;62.00
3770;DHT22;1900;48.890;9.190;2023-02-05T15:23:46;9.10;61.90
3770;DHT22;1900;48.890;9.190;2023-02-05T15:26:33;9.10;62.20
3770;DHT22;1900;48.890;9.190;2023-02-05T15:29:12;9.10;62.30
3770;DHT22;1900;48.890;9.190;2023-02-05T15:31:47;9.10;62.40
3770;DHT22;1900;48.890;9.190;2023-02-05T15:34:41;9.10;62.20
3770;DHT22;1900;48.890;9.190;2023-02-05T15:37:30;9.10;62.20
3770;DHT22;1900;48.890;9.190;2023-02-05T15:40:15;9.10;62.50
3770;DHT22;1900;48.890;9.190;2023-02-05T15:42:44;9.10;62.50
3770;DHT22;1900;48.890;9.190;2023-02-05T15:48:18;9.20;63.40
3770;DHT22;1900;48.890;9.190;2023-02-05T15:51:08;9.30;63.80
3770;DHT22;1900;48.890;9.190;2023-02-05T16:01:38;9.60;64.30
3770;DHT22;1900;48.890;9.190;2023-02-05T16:06:47;9.70;64.10
3770;DHT22;1900;48.890;9.190;2023-02-05T16:09:21;9.80;64.10
3770;DHT22;1900;48.890;9.190;2023-02-05T16:11:48;9.90;64.20
3770;DHT22;1900;48.890;9.190;2023-02-05T16:14:19;9.90;64.00
3770;DHT22;1900;48.890;9.190;2023-02-05T16:19:21;9.90;64.00
3770;DHT22;1900;48.890;9.190;2023-02-05T16:21:53;10.00;62.70
3770;DHT22;1900;48.890;9.190;2023-02-05T16:24:28;10.00;62.60
3770;DHT22;1900;48.890;9.190;2023-02-05T16:27:12;10.00;62.80
3770;DHT22;1900;48.890;9.190;2023-02-05T16:29:44;10.00;62.90
3770;DHT22;1900;48.890;9.190;2023-02-05T16:34:45;10.10;63.00
3770;DHT22;1900;48.890;9.190;2023-02-05T16:37:15;10.10;63.10
3770;DHT22;1900;48.890;9.190;2023-02-05T16:39:53;10.20;63.20
3770;DHT22;1900;48.890;9.190;2023-02-05T16:42:36;10.20;62.90
3770;DHT22;1900;48.890;9.190;2023-02-05T16:47:37;10.10;62.20
3770;DHT22;1900;48.890;9.190;2023-02-05T16:50:41;10.10;62.40
3770;DHT22;1900;48.890;9.190;2023-02-05T16:53:21;10.10;62.80
3770;DHT22;1900;48.890;9.190;2023-02-05T16:55:47;10.10;62.70
3770;DHT22;1900;48.890;9.190;2023-02-05T16:58:20;10.10;62.60
3770;DHT22;1900;48.890;9.190;2023-02-05T17:00:59;10.10;62.80
3770;DHT22;1900;48.890;9.190;2023-02-05T17:03:33;10.10;62.80
3770;DHT22;1900;48.890;9.190;2023-02-05T17:06:01;10.20;63.00
3770;DHT22;1900;48.890;9.190;2023-02-05T17:08:32;10.20;63.20
3770;DHT22;1900;48.890;9.190;2023-02-05T17:11:03;10.20;63.30
3770;DHT22;1900;48.890;9.190;2023-02-05T17:13:40;10.20;63.00
3770;DHT22;1900;48.890;9.190;2023-02-05T17:21:25;10.20;62.70
3770;DHT22;1900;48.890;9.190;2023-02-05T17:23:52;10.20;62.70
3770;DHT22;1900;48.890;9.190;2023-02-05T17:26:19;10.20;62.90
3770;DHT22;1900;48.890;9.190;2023-02-05T17:28:49;10.30;63.30
3770;DHT22;1900;48.890;9.190;2023-02-05T17:31:15;10.30;63.30
3770;DHT22;1900;48.890;9.190;2023-02-05T17:33:42;10.30;63.50
3770;DHT22;1900;48.890;9.190;2023-02-05T17:36:14;10.40;63.80
3770;DHT22;1900;48.890;9.190;2023-02-05T17:38:41;10.50;63.90
3770;DHT22;1900;48.890;9.190;2023-02-05T17:41:16;10.50;63.60
3770;DHT22;1900;48.890;9.190;2023-02-05T17:44:00;10.50;63.40
3770;DHT22;1900;48.890;9.190;2023-02-05T17:46:26;10.50;63.10
3770;DHT22;1900;48.890;9.190;2023-02-05T17:48:52;10.50;63.20
3770;DHT22;1900;48.890;9.190;2023-02-05T17:51:19;10.50;62.90
3770;DHT22;1900;48.890;9.190;2023-02-05T17:53:45;10.40;62.90
3770;DHT22;1900;48.890;9.190;2023-02-05T17:56:11;10.50;63.10
3770;DHT22;1900;48.890;9.190;2023-02-05T17:58:38;10.50;63.20
3770;DHT22;1900;48.890;9.190;2023-02-05T18:01:04;10.50;63.10
3770;DHT22;1900;48.890;9.190;2023-02-05T18:03:30;10.40;62.70
3770;DHT22;1900;48.890;9.190;2023-02-05T18:05:57;10.40;62.50
3770;DHT22;1900;48.890;9.190;2023-02-05T18:08:22;10.40;62.80
3770;DHT22;1900;48.890;9.190;2023-02-05T18:10:49;10.40;62.80
3770;DHT22;1900;48.890;9.190;2023-02-05T18:13:15;10.40;62.70
3770;DHT22;1900;48.890;9.190;2023-02-05T18:15:41;10.40;62.80
3770;DHT22;1900;48.890;9.190;2023-02-05T18:18:08;10.40;63.00
3770;DHT22;1900;48.890;9.190;2023-02-05T18:20:34;10.40;63.20
3770;DHT22;1900;48.890;9.190;2023-02-05T18:22:59;10.40;63.40
3770;DHT22;1900;48.890;9.190;2023-02-05T18:25:25;10.50;63.60
3770;DHT22;1900;48.890;9.190;2023-02-05T18:27:51;10.50;63.40
3770;DHT22;1900;48.890;9.190;2023-02-05T18:30:17;10.50;63.30
3770;DHT22;1900;48.890;9.190;2023-02-05T18:32:43;10.50;63.40
3770;DHT22;1900;48.890;9.190;2023-02-05T18:35:08;10.60;63.60
3770;DHT22;1900;48.890;9.190;2023-02-05T18:37:41;10.60;63.40
3770;DHT22;1900;48.890;9.190;2023-02-05T18:40:07;10.60;63.40
3770;DHT22;1900;48.890;9.190;2023-02-05T18:42:33;10.60;63.20
3770;DHT22;1900;48.890;9.190;2023-02-05T18:45:00;10.60;63.40
3770;DHT22;1900;48.890;9.190;2023-02-05T18:47:26;10.70;63.60
3770;DHT22;1900;48.890;9.190;2023-02-05T18:49:51;10.70;63.50
3770;DHT22;1900;48.890;9.190;2023-02-05T18:52:17;10.70;63.30
3770;DHT22;1900;48.890;9.190;2023-02-05T18:54:46;10.70;63.30
3770;DHT22;1900;48.890;9.190;2023-02-05T18:57:12;10.70;63.20
3770;DHT22;1900;48.890;9.190;2023-02-05T18:59:37;10.70;63.20
3770;DHT22;1900;48.890;9.190;2023-02-05T19:02:05;10.70;63.20
3770;DHT22;1900;48.890;9.190;2023-02-05T19:04:32;10.70;63.00
3770;DHT22;1900;48.890;9.190;2023-02-05T19:06:58;10.60;62.80
3770;DHT22;1900;48.890;9.190;2023-02-05T19:09:24;10.70;63.00
3770;DHT22;1900;48.890;9.190;2023-02-05T19:11:51;10.60;62.70
3770;DHT22;1900;48.890;9.190;2023-02-05T19:14:19;10.60;62.50
3770;DHT22;1900;48.890;9.190;2023-02-05T19:16:45;10.60;62.60
3770;DHT22;1900;48.890;9.190;2023-02-05T19:19:14;10.50;62.40
3770;DHT22;1900;48.890;9.190;2023-02-05T19:21:41;10.50;62.50